createdAt,value
2022-09-12T00:00:16.491Z,84.85
2022-09-12T00:01:22.361Z,83.87
2022-09-12T00:02:25.121Z,83.42
2022-09-12T00:03:27.261Z,84.29
2022-09-12T00:04:29.774Z,83.89
2022-09-12T00:05:33.270Z,83.27
2022-09-12T00:06:36.679Z,83.97
2022-09-12T00:07:38.806Z,85.04
2022-09-12T00:08:41.882Z,85.95
2022-09-12T00:09:48.746Z,85.53
2022-09-12T00:10:54.170Z,87.04
2022-09-12T00:11:56.544Z,87.91
2022-09-12T00:12:58.484Z,86.22
2022-09-12T00:14:02.666Z,86.79
2022-09-12T00:15:05.749Z,86.75
2022-09-12T00:16:14.005Z,86.29
2022-09-12T00:17:15.987Z,87.44
2022-09-12T00:18:18.386Z,87.42
2022-09-12T00:19:20.501Z,87.74
2022-09-12T00:20:25.629Z,88.50
2022-09-12T00:21:32.673Z,87.83
2022-09-12T00:22:35.318Z,86.47
2022-09-12T00:23:38.729Z,87.78
2022-09-12T00:24:41.441Z,88.30
2022-09-12T00:25:44.855Z,90.45
2022-09-12T00:26:47.335Z,90.94
2022-09-12T00:27:53.026Z,88.64
2022-09-12T00:28:57.677Z,87.95
2022-09-12T00:30:01.260Z,88.34
2022-09-12T00:31:08.436Z,88.45
2022-09-12T00:32:11.777Z,88.26
2022-09-12T00:33:15.164Z,88.26
2022-09-12T00:34:19.029Z,89.17
2022-09-12T00:35:21.482Z,89.17
2022-09-12T00:36:25.736Z,88.54
2022-09-12T00:37:29.939Z,88.32
2022-09-12T00:38:32.151Z,88.40
2022-09-12T00:39:39.411Z,88.49
2022-09-12T00:40:46.882Z,89.03
2022-09-12T00:41:53.875Z,89.54
2022-09-12T00:42:57.675Z,88.70
2022-09-12T00:44:23.476Z,88.44
2022-09-12T00:45:29.788Z,88.99
2022-09-12T00:46:40.814Z,87.93
2022-09-12T00:47:44.232Z,87.11
2022-09-12T00:49:03.577Z,87.78
2022-09-12T00:50:13.331Z,87.58
2022-09-12T00:51:16.468Z,87.69
2022-09-12T00:52:29.896Z,87.49
2022-09-12T00:53:32.252Z,87.52
2022-09-12T00:54:42.944Z,87.70
2022-09-12T00:55:51.840Z,88.00
2022-09-12T00:56:59.489Z,87.37
2022-09-12T00:58:09.420Z,87.11
2022-09-12T00:59:18.231Z,86.64
2022-09-12T01:00:24.101Z,86.63
2022-09-12T01:01:31.709Z,86.38
2022-09-12T01:02:34.973Z,85.96
2022-09-12T01:03:38.097Z,86.32
2022-09-12T01:04:42.519Z,86.60
2022-09-12T01:05:59.506Z,86.75
2022-09-12T01:07:04.285Z,87.26
2022-09-12T01:08:07.273Z,87.04
2022-09-12T01:09:13.111Z,86.72
2022-09-12T01:10:16.053Z,86.53
2022-09-12T01:11:19.816Z,86.76
2022-09-12T01:12:22.996Z,86.38
2022-09-12T01:13:26.142Z,87.28
2022-09-12T01:14:30.795Z,87.85
2022-09-12T01:15:33.188Z,88.14
2022-09-12T01:16:38.232Z,88.07
2022-09-12T01:18:14.754Z,88.18
2022-09-12T01:19:21.027Z,88.65
2022-09-12T01:20:41.472Z,89.55
2022-09-12T01:22:17.230Z,88.76
2022-09-12T01:24:25.246Z,88.90
2022-09-12T01:25:27.252Z,88.95
2022-09-12T01:27:01.091Z,88.69
2022-09-12T01:28:11.772Z,88.58
2022-09-12T01:29:56.671Z,88.62
2022-09-12T01:31:09.154Z,89.00
2022-09-12T01:32:32.583Z,88.46
2022-09-12T01:33:40.930Z,87.62
2022-09-12T01:34:52.035Z,88.08
2022-09-12T01:36:13.364Z,88.59
2022-09-12T01:37:28.452Z,88.52
2022-09-12T01:38:45.285Z,88.91
2022-09-12T01:40:21.863Z,88.95
2022-09-12T01:41:44.051Z,88.06
2022-09-12T01:43:19.739Z,88.66
2022-09-12T01:44:40.002Z,87.98
2022-09-12T01:45:57.211Z,87.84
2022-09-12T01:47:09.510Z,87.70
2022-09-12T01:48:20.802Z,87.65
2022-09-12T01:49:33.396Z,88.08
2022-09-12T01:50:52.094Z,88.44
2022-09-12T01:52:09.378Z,88.96
2022-09-12T01:53:21.045Z,90.05
2022-09-12T01:54:35.957Z,90.05
2022-09-12T01:55:48.131Z,89.35
2022-09-12T01:57:00.069Z,89.78
2022-09-12T01:58:09.863Z,90.17
2022-09-12T01:59:36.323Z,90.09
2022-09-12T02:00:48.436Z,90.76
2022-09-12T02:01:59.005Z,90.69
2022-09-12T02:03:16.591Z,90.54
2022-09-12T02:04:34.156Z,90.87
2022-09-12T02:05:41.855Z,91.59
2022-09-12T02:06:49.195Z,92.28
2022-09-12T02:08:04.208Z,93.68
2022-09-12T02:09:15.677Z,93.31
2022-09-12T02:10:32.939Z,92.39
2022-09-12T02:11:40.962Z,91.46
2022-09-12T02:12:56.883Z,91.44
2022-09-12T02:14:15.480Z,91.21
2022-09-12T02:15:21.102Z,90.95
2022-09-12T02:16:44.984Z,91.49
2022-09-12T02:17:52.618Z,91.94
2022-09-12T02:19:02.754Z,92.07
2022-09-12T02:20:48.011Z,92.62
2022-09-12T02:21:56.597Z,91.80
2022-09-12T02:23:01.188Z,91.65
2022-09-12T02:24:09.041Z,91.43
2022-09-12T02:25:14.797Z,90.84
2022-09-12T02:26:29.503Z,91.22
2022-09-12T02:27:41.591Z,92.15
2022-09-12T02:28:45.666Z,93.61
2022-09-12T02:29:51.912Z,92.52
2022-09-12T02:31:17.301Z,92.83
2022-09-12T02:32:29.761Z,92.14
2022-09-12T02:33:59.602Z,92.13
2022-09-12T02:35:18.482Z,94.60
2022-09-12T02:36:38.280Z,95.83
2022-09-12T02:37:49.156Z,95.71
2022-09-12T02:38:51.555Z,96.16
2022-09-12T02:39:57.301Z,97.83
2022-09-12T02:40:59.540Z,97.58
2022-09-12T02:42:03.192Z,95.59
2022-09-12T02:43:06.567Z,95.37
2022-09-12T02:44:12.093Z,95.52
2022-09-12T02:45:17.209Z,95.28
2022-09-12T02:46:26.934Z,96.00
2022-09-12T02:47:36.552Z,96.13
2022-09-12T02:48:44.457Z,94.94
2022-09-12T02:50:00.056Z,95.45
2022-09-12T02:51:28.175Z,94.96
2022-09-12T02:52:37.074Z,95.54
2022-09-12T02:53:41.975Z,95.82
2022-09-12T02:54:44.891Z,94.10
2022-09-12T02:55:49.107Z,94.44
2022-09-12T02:56:52.215Z,95.08
2022-09-12T02:57:55.814Z,95.33
2022-09-12T02:59:06.064Z,96.03
2022-09-12T03:00:10.957Z,95.20
2022-09-12T03:01:52.813Z,95.37
2022-09-12T03:03:15.653Z,96.20
2022-09-12T03:04:49.482Z,95.91
2022-09-12T03:06:03.561Z,95.68
2022-09-12T03:07:40.385Z,96.17
2022-09-12T03:08:53.860Z,96.99
2022-09-12T03:10:15.187Z,96.95
2022-09-12T03:11:38.267Z,96.88
2022-09-12T03:13:16.873Z,97.03
2022-09-12T03:14:37.256Z,98.79
2022-09-12T03:16:02.079Z,97.68
2022-09-12T03:17:16.179Z,98.02
2022-09-12T03:18:31.449Z,97.81
2022-09-12T03:20:03.768Z,98.48
2022-09-12T03:21:38.132Z,97.93
2022-09-12T03:22:40.279Z,98.05
2022-09-12T03:23:49.468Z,97.71
2022-09-12T03:25:07.905Z,98.26
2022-09-12T03:26:26.684Z,98.90
2022-09-12T03:27:41.705Z,99.15
2022-09-12T03:28:46.414Z,99.58
2022-09-12T03:29:51.073Z,99.28
2022-09-12T03:30:54.858Z,99.56
2022-09-12T03:31:58.746Z,99.89
2022-09-12T03:33:00.783Z,99.74
2022-09-12T03:34:04.444Z,99.41
2022-09-12T03:35:07.303Z,100.00
2022-09-12T03:36:23.980Z,100.00
2022-09-12T03:37:28.745Z,100.00
2022-09-12T03:38:34.511Z,99.73
2022-09-12T03:39:36.657Z,99.78
2022-09-12T03:40:39.438Z,99.87
2022-09-12T03:41:43.899Z,99.55
2022-09-12T03:42:45.932Z,99.94
2022-09-12T03:43:48.524Z,100.00
2022-09-12T03:44:51.528Z,100.00
2022-09-12T03:45:53.707Z,100.00
2022-09-12T03:46:55.904Z,99.72
2022-09-12T03:47:59.097Z,99.28
2022-09-12T03:49:02.368Z,99.99
2022-09-12T03:50:06.508Z,100.00
2022-09-12T03:51:10.630Z,99.98
2022-09-12T03:52:12.851Z,99.85
2022-09-12T03:53:17.268Z,100.00
2022-09-12T03:54:19.806Z,100.00
2022-09-12T03:55:21.956Z,99.92
2022-09-12T03:56:23.939Z,100.00
2022-09-12T03:57:28.395Z,100.00
2022-09-12T03:58:32.098Z,100.00
2022-09-12T03:59:34.141Z,100.00
2022-09-12T04:00:36.265Z,100.00
2022-09-12T04:01:38.587Z,100.00
2022-09-12T04:02:41.752Z,100.00
2022-09-12T04:03:45.460Z,99.83
2022-09-12T04:04:48.985Z,100.00
2022-09-12T04:05:51.162Z,100.00
2022-09-12T04:06:53.241Z,99.86
2022-09-12T04:07:55.251Z,100.00
2022-09-12T04:08:57.510Z,100.00
2022-09-12T04:09:59.556Z,100.00
2022-09-12T04:11:10.870Z,100.00
2022-09-12T04:12:14.103Z,100.00
2022-09-12T04:13:16.179Z,100.00
2022-09-12T04:14:18.157Z,100.00
2022-09-12T04:15:20.884Z,100.00
2022-09-12T04:16:24.290Z,99.85
2022-09-12T04:17:30.218Z,100.00
2022-09-12T04:18:32.327Z,100.00
2022-09-12T04:19:34.526Z,100.00
2022-09-12T04:20:36.896Z,100.00
2022-09-12T04:21:39.686Z,100.00
2022-09-12T04:22:44.645Z,100.00
2022-09-12T04:23:46.874Z,100.00
2022-09-12T04:24:51.284Z,100.00
2022-09-12T04:25:54.869Z,100.00
2022-09-12T04:27:04.791Z,100.00
2022-09-12T04:28:09.679Z,100.00
2022-09-12T04:29:15.347Z,100.00
2022-09-12T04:30:17.917Z,100.00
2022-09-12T04:31:23.969Z,100.00
2022-09-12T04:32:26.271Z,100.00
2022-09-12T04:33:31.941Z,100.00
2022-09-12T04:34:34.219Z,100.00
2022-09-12T04:35:36.700Z,100.00
2022-09-12T04:36:39.916Z,100.00
2022-09-12T04:37:42.340Z,100.00
2022-09-12T04:38:46.767Z,100.00
2022-09-12T04:39:49.832Z,100.00
2022-09-12T04:40:52.124Z,100.00
2022-09-12T04:41:54.731Z,100.00
2022-09-12T04:42:56.753Z,100.00
2022-09-12T04:44:05.613Z,100.00
2022-09-12T04:45:08.737Z,100.00
2022-09-12T04:46:13.140Z,100.00
2022-09-12T04:47:15.282Z,100.00
2022-09-12T04:48:17.397Z,100.00
2022-09-12T04:49:19.599Z,100.00
2022-09-12T04:50:26.487Z,100.00
2022-09-12T04:51:31.581Z,100.00
2022-09-12T04:52:33.623Z,100.00
2022-09-12T04:53:37.186Z,100.00
2022-09-12T04:54:39.163Z,100.00
2022-09-12T04:55:41.171Z,100.00
2022-09-12T04:56:49.067Z,100.00
2022-09-12T04:57:51.390Z,100.00
2022-09-12T04:58:53.878Z,100.00
2022-09-12T05:00:06.513Z,100.00
2022-09-12T05:01:15.151Z,100.00
2022-09-12T05:02:24.642Z,100.00
2022-09-12T05:03:28.439Z,100.00
2022-09-12T05:04:31.735Z,100.00
2022-09-12T05:05:33.752Z,100.00
2022-09-12T05:06:37.257Z,100.00
2022-09-12T05:07:40.580Z,100.00
2022-09-12T05:08:44.159Z,100.00
2022-09-12T05:09:46.424Z,100.00
2022-09-12T05:10:48.453Z,100.00
2022-09-12T05:12:06.058Z,100.00
2022-09-12T05:13:10.584Z,100.00
2022-09-12T05:14:13.420Z,100.00
2022-09-12T05:15:15.564Z,100.00
2022-09-12T05:16:19.589Z,100.00
2022-09-12T05:17:23.979Z,100.00
2022-09-12T05:18:27.796Z,100.00
2022-09-12T05:19:31.096Z,100.00
2022-09-12T05:20:36.162Z,100.00
2022-09-12T05:21:38.677Z,100.00
2022-09-12T05:22:41.096Z,100.00
2022-09-12T05:23:44.157Z,100.00
2022-09-12T05:24:50.683Z,100.00
2022-09-12T05:25:54.610Z,100.00
2022-09-12T05:26:56.727Z,100.00
2022-09-12T05:27:59.429Z,100.00
2022-09-12T05:29:01.593Z,100.00
2022-09-12T05:30:04.795Z,100.00
2022-09-12T05:31:16.865Z,100.00
2022-09-12T05:32:19.630Z,100.00
2022-09-12T05:33:24.980Z,100.00
2022-09-12T05:34:28.199Z,100.00
2022-09-12T05:35:31.327Z,100.00
2022-09-12T05:36:35.605Z,100.00
2022-09-12T05:37:40.037Z,100.00
2022-09-12T05:38:42.239Z,100.00
2022-09-12T05:39:44.430Z,100.00
2022-09-12T05:40:48.835Z,100.00
2022-09-12T05:41:53.563Z,100.00
2022-09-12T05:42:55.950Z,100.00
2022-09-12T05:44:00.111Z,100.00
2022-09-12T05:45:04.757Z,100.00
2022-09-12T05:46:13.406Z,100.00
2022-09-12T05:47:19.113Z,100.00
2022-09-12T05:48:24.441Z,100.00
2022-09-12T05:49:26.651Z,100.00
2022-09-12T05:50:29.522Z,100.00
2022-09-12T05:51:35.768Z,100.00
2022-09-12T05:52:40.150Z,100.00
2022-09-12T05:53:42.410Z,100.00
2022-09-12T05:54:45.937Z,100.00
2022-09-12T05:55:50.294Z,100.00
2022-09-12T05:56:52.837Z,100.00
2022-09-12T05:57:55.505Z,100.00
2022-09-12T05:59:04.251Z,100.00
2022-09-12T06:00:09.890Z,100.00
2022-09-12T06:01:19.580Z,100.00
2022-09-12T06:02:23.214Z,100.00
2022-09-12T06:03:26.838Z,100.00
2022-09-12T06:04:28.896Z,100.00
2022-09-12T06:05:31.103Z,100.00
2022-09-12T06:06:37.052Z,100.00
2022-09-12T06:07:40.665Z,100.00
2022-09-12T06:08:45.237Z,100.00
2022-09-12T06:09:47.549Z,100.00
2022-09-12T06:10:49.719Z,100.00
2022-09-12T06:11:52.672Z,100.00
2022-09-12T06:12:55.037Z,100.00
2022-09-12T06:13:58.698Z,100.00
2022-09-12T06:15:00.973Z,100.00
2022-09-12T06:16:05.500Z,100.00
2022-09-12T06:17:07.510Z,100.00
2022-09-12T06:18:09.512Z,100.00
2022-09-12T06:19:17.688Z,100.00
2022-09-12T06:20:20.772Z,100.00
2022-09-12T06:21:27.351Z,100.00
2022-09-12T06:22:29.522Z,100.00
2022-09-12T06:23:31.945Z,100.00
2022-09-12T06:24:35.823Z,100.00
2022-09-12T06:25:37.830Z,100.00
2022-09-12T06:26:40.448Z,100.00
2022-09-12T06:27:42.666Z,100.00
2022-09-12T06:28:46.232Z,99.17
2022-09-12T06:29:48.385Z,99.22
2022-09-12T06:30:50.935Z,99.32
2022-09-12T06:31:53.108Z,99.12
2022-09-12T06:32:57.096Z,100.00
2022-09-12T06:34:02.575Z,99.50
2022-09-12T06:35:05.965Z,99.36
2022-09-12T06:36:28.078Z,99.95
2022-09-12T06:37:33.481Z,100.00
2022-09-12T06:38:37.247Z,100.00
2022-09-12T06:39:39.553Z,100.00
2022-09-12T06:40:46.541Z,100.00
2022-09-12T06:41:50.070Z,100.00
2022-09-12T06:43:05.986Z,100.00
2022-09-12T06:44:16.447Z,99.89
2022-09-12T06:45:20.151Z,98.95
2022-09-12T06:46:23.078Z,98.59
2022-09-12T06:47:25.411Z,98.60
2022-09-12T06:48:31.826Z,99.12
2022-09-12T06:49:34.203Z,98.37
2022-09-12T06:50:39.644Z,97.87
2022-09-12T06:51:48.131Z,98.07
2022-09-12T06:52:51.631Z,97.63
2022-09-12T06:54:01.467Z,98.21
2022-09-12T06:55:06.111Z,97.89
2022-09-12T06:56:20.241Z,97.70
2022-09-12T06:57:22.376Z,98.59
2022-09-12T06:58:25.755Z,98.46
2022-09-12T06:59:28.273Z,97.67
2022-09-12T07:00:30.413Z,97.87
2022-09-12T07:01:34.346Z,97.36
2022-09-12T07:02:36.661Z,96.69
2022-09-12T07:03:39.471Z,96.88
2022-09-12T07:04:43.876Z,96.78
2022-09-12T07:05:46.844Z,96.32
2022-09-12T07:06:48.988Z,95.28
2022-09-12T07:07:51.476Z,94.01
2022-09-12T07:08:53.754Z,93.15
2022-09-12T07:09:58.145Z,92.38
2022-09-12T07:11:22.102Z,91.18
2022-09-12T07:12:24.410Z,91.47
2022-09-12T07:13:27.050Z,91.76
2022-09-12T07:14:29.198Z,92.62
2022-09-12T07:15:31.485Z,93.09
2022-09-12T07:16:38.285Z,92.90
2022-09-12T07:17:40.987Z,94.15
2022-09-12T07:18:46.940Z,94.21
2022-09-12T07:19:49.041Z,93.48
2022-09-12T07:20:52.274Z,92.50
2022-09-12T07:21:58.545Z,92.06
2022-09-12T07:23:00.883Z,92.50
2022-09-12T07:24:03.345Z,92.92
2022-09-12T07:25:06.064Z,92.46
2022-09-12T07:26:12.583Z,93.19
2022-09-12T07:27:15.894Z,93.68
2022-09-12T07:28:17.979Z,92.78
2022-09-12T07:29:37.499Z,92.32
2022-09-12T07:30:43.471Z,92.53
2022-09-12T07:31:48.502Z,93.00
2022-09-12T07:32:54.611Z,93.75
2022-09-12T07:33:57.158Z,94.65
2022-09-12T07:34:59.237Z,94.36
2022-09-12T07:36:04.179Z,93.99
2022-09-12T07:37:07.340Z,92.87
2022-09-12T07:38:10.561Z,93.55
2022-09-12T07:39:13.639Z,93.28
2022-09-12T07:40:15.774Z,94.31
2022-09-12T07:41:26.823Z,94.32
2022-09-12T07:42:29.041Z,94.39
2022-09-12T07:43:31.186Z,93.89
2022-09-12T07:44:33.324Z,94.01
2022-09-12T07:45:35.522Z,94.61
2022-09-12T07:46:40.210Z,95.01
2022-09-12T07:47:46.632Z,94.79
2022-09-12T07:48:57.072Z,94.59
2022-09-12T07:49:59.475Z,94.25
2022-09-12T07:51:04.262Z,95.22
2022-09-12T07:52:06.628Z,94.80
2022-09-12T07:53:09.960Z,94.07
2022-09-12T07:54:14.804Z,93.53
2022-09-12T07:55:20.608Z,94.23
2022-09-12T07:56:29.395Z,93.94
2022-09-12T07:57:32.090Z,94.18
2022-09-12T07:58:36.714Z,94.97
2022-09-12T07:59:52.480Z,94.01
2022-09-12T08:00:57.158Z,93.35
2022-09-12T08:01:59.354Z,93.55
2022-09-12T08:03:08.265Z,93.34
2022-09-12T08:04:10.528Z,93.46
2022-09-12T08:05:13.502Z,93.78
2022-09-12T08:06:25.359Z,93.60
2022-09-12T08:07:29.150Z,93.65
2022-09-12T08:08:31.527Z,93.31
2022-09-12T08:09:36.568Z,93.42
2022-09-12T08:10:38.559Z,94.24
2022-09-12T08:11:41.930Z,94.10
2022-09-12T08:12:43.996Z,93.29
2022-09-12T08:13:47.440Z,93.12
2022-09-12T08:14:51.559Z,93.15
2022-09-12T08:15:58.372Z,93.21
2022-09-12T08:17:01.474Z,93.21
2022-09-12T08:18:06.029Z,93.38
2022-09-12T08:19:08.048Z,93.04
2022-09-12T08:20:10.593Z,92.28
2022-09-12T08:21:23.124Z,92.20
2022-09-12T08:22:26.301Z,92.19
2022-09-12T08:23:31.919Z,91.66
2022-09-12T08:24:34.868Z,92.00
2022-09-12T08:25:37.666Z,91.71
2022-09-12T08:26:43.437Z,92.07
2022-09-12T08:27:47.080Z,91.31
2022-09-12T08:28:49.809Z,91.02
2022-09-12T08:29:52.439Z,91.34
2022-09-12T08:31:01.781Z,91.66
2022-09-12T08:32:04.138Z,91.02
2022-09-12T08:33:08.581Z,91.50
2022-09-12T08:34:10.639Z,91.26
2022-09-12T08:35:13.380Z,90.51
2022-09-12T08:36:23.670Z,90.59
2022-09-12T08:37:25.807Z,90.90
2022-09-12T08:38:29.587Z,90.65
2022-09-12T08:39:43.009Z,90.61
2022-09-12T08:41:17.396Z,89.85
2022-09-12T08:42:36.923Z,89.13
2022-09-12T08:43:57.113Z,88.55
2022-09-12T08:45:16.142Z,88.48
2022-09-12T08:46:29.712Z,88.20
2022-09-12T08:47:45.007Z,88.69
2022-09-12T08:48:50.084Z,87.49
2022-09-12T08:50:05.281Z,87.03
2022-09-12T08:51:12.577Z,87.00
2022-09-12T08:52:22.707Z,85.69
2022-09-12T08:53:28.239Z,86.05
2022-09-12T08:54:35.484Z,85.70
2022-09-12T08:55:44.789Z,85.86
2022-09-12T08:56:48.435Z,83.17
2022-09-12T08:57:52.109Z,83.21
2022-09-12T08:58:54.204Z,83.22
2022-09-12T08:59:58.339Z,83.14
2022-09-12T09:01:11.284Z,83.46
2022-09-12T09:02:30.727Z,82.59
2022-09-12T09:04:01.999Z,82.92
2022-09-12T09:05:41.334Z,82.12
2022-09-12T09:06:59.428Z,81.18
2022-09-12T09:08:19.510Z,80.41
2022-09-12T09:09:29.724Z,81.42
2022-09-12T09:10:46.776Z,78.90
2022-09-12T09:12:19.366Z,79.38
2022-09-12T09:13:45.178Z,78.95
2022-09-12T09:14:56.744Z,78.83
2022-09-12T09:16:26.048Z,78.63
2022-09-12T09:17:38.231Z,77.68
2022-09-12T09:18:42.680Z,77.47
2022-09-12T09:19:55.194Z,77.01
2022-09-12T09:21:03.546Z,76.45
2022-09-12T09:22:51.296Z,76.08
2022-09-12T09:24:05.843Z,76.65
2022-09-12T09:25:23.068Z,76.05
2022-09-12T09:26:39.460Z,75.28
2022-09-12T09:27:48.340Z,75.41
2022-09-12T09:29:01.831Z,75.66
2022-09-12T09:30:04.535Z,74.79
2022-09-12T09:31:15.338Z,75.09
2022-09-12T09:32:41.172Z,76.31
2022-09-12T09:33:45.761Z,75.62
2022-09-12T09:34:55.514Z,76.73
2022-09-12T09:36:24.240Z,76.57
2022-09-12T09:37:45.090Z,75.84
2022-09-12T09:39:01.011Z,75.75
2022-09-12T09:40:28.241Z,75.01
2022-09-12T09:41:53.777Z,74.34
2022-09-12T09:43:13.638Z,74.83
2022-09-12T09:44:15.998Z,74.39
2022-09-12T09:45:24.310Z,73.71
2022-09-12T09:46:27.606Z,73.84
2022-09-12T09:47:31.214Z,73.63
2022-09-12T09:48:37.081Z,74.12
2022-09-12T09:49:39.524Z,74.27
2022-09-12T09:50:43.548Z,73.76
2022-09-12T09:51:47.801Z,73.95
2022-09-12T09:52:52.397Z,73.50
2022-09-12T09:54:02.120Z,73.54
2022-09-12T09:55:17.040Z,72.69
2022-09-12T09:56:34.263Z,72.92
2022-09-12T09:57:36.297Z,72.23
2022-09-12T09:58:39.776Z,72.24
2022-09-12T09:59:41.707Z,71.95
2022-09-12T10:00:43.848Z,71.62
2022-09-12T10:01:57.827Z,71.01
2022-09-12T10:03:14.469Z,70.30
2022-09-12T10:04:22.922Z,70.53
2022-09-12T10:05:26.493Z,70.67
2022-09-12T10:06:39.466Z,71.70
2022-09-12T10:07:50.653Z,71.12
2022-09-12T10:09:05.447Z,71.56
2022-09-12T10:10:18.670Z,71.73
2022-09-12T10:11:23.398Z,72.49
2022-09-12T10:12:31.630Z,71.42
2022-09-12T10:13:43.849Z,71.55
2022-09-12T10:14:57.890Z,71.94
2022-09-12T10:16:06.445Z,72.22
2022-09-12T10:17:47.814Z,72.62
2022-09-12T10:18:52.669Z,72.77
2022-09-12T10:20:17.407Z,72.68
2022-09-12T10:21:30.283Z,72.57
2022-09-12T10:22:32.490Z,72.41
2022-09-12T10:23:37.825Z,72.44
2022-09-12T10:24:46.493Z,72.74
2022-09-12T10:25:53.984Z,73.12
2022-09-12T10:26:58.764Z,72.24
2022-09-12T10:28:03.020Z,72.55
2022-09-12T10:29:16.348Z,71.83
2022-09-12T10:30:20.378Z,72.34
2022-09-12T10:31:29.710Z,72.36
2022-09-12T10:32:37.832Z,72.13
2022-09-12T10:33:51.760Z,71.67
2022-09-12T10:34:56.916Z,71.98
2022-09-12T10:35:59.772Z,71.61
2022-09-12T10:37:05.732Z,70.70
2022-09-12T10:38:21.530Z,70.94
2022-09-12T10:39:24.077Z,71.14
2022-09-12T10:40:33.011Z,71.19
2022-09-12T10:41:40.573Z,71.10
2022-09-12T10:42:57.281Z,70.32
2022-09-12T10:44:14.287Z,71.37
2022-09-12T10:45:26.833Z,70.79
2022-09-12T10:46:30.333Z,70.61
2022-09-12T10:47:32.820Z,70.10
2022-09-12T10:48:35.838Z,70.06
2022-09-12T10:49:40.480Z,69.32
2022-09-12T10:50:43.031Z,69.25
2022-09-12T10:51:45.367Z,69.13
2022-09-12T10:52:47.413Z,69.00
2022-09-12T10:53:50.438Z,69.53
2022-09-12T10:54:53.014Z,68.85
2022-09-12T10:56:18.988Z,67.26
2022-09-12T10:57:35.701Z,67.11
2022-09-12T10:59:02.261Z,67.59
2022-09-12T11:00:20.491Z,68.08
2022-09-12T11:01:49.015Z,68.59
2022-09-12T11:03:15.837Z,68.71
2022-09-12T11:04:25.186Z,66.95
2022-09-12T11:05:46.012Z,66.81
2022-09-12T11:07:06.673Z,66.09
2022-09-12T11:08:13.620Z,66.33
2022-09-12T11:09:21.423Z,66.09
2022-09-12T11:10:48.169Z,66.38
2022-09-12T11:11:59.210Z,66.44
2022-09-12T11:13:31.489Z,65.88
2022-09-12T11:15:02.683Z,67.05
2022-09-12T11:16:14.233Z,66.73
2022-09-12T11:17:42.784Z,66.38
2022-09-12T11:19:04.088Z,65.43
2022-09-12T11:20:41.317Z,66.73
2022-09-12T11:21:46.655Z,66.57
2022-09-12T11:23:22.597Z,66.16
2022-09-12T11:25:03.614Z,66.24
2022-09-12T11:26:21.209Z,66.14
2022-09-12T11:27:35.660Z,66.00
2022-09-12T11:28:59.572Z,66.25
2022-09-12T11:30:16.559Z,66.32
2022-09-12T11:32:00.679Z,66.26
2022-09-12T11:33:37.646Z,66.84
2022-09-12T11:34:48.478Z,66.71
2022-09-12T11:35:55.444Z,65.88
2022-09-12T11:37:07.414Z,66.26
2022-09-12T11:38:33.108Z,66.51
2022-09-12T11:39:40.735Z,66.34
2022-09-12T11:40:56.762Z,66.13
2022-09-12T11:42:03.696Z,66.10
2022-09-12T11:43:46.780Z,65.54
2022-09-12T11:45:04.906Z,64.98
2022-09-12T11:46:40.335Z,65.40
2022-09-12T11:47:48.409Z,64.38
2022-09-12T11:49:16.242Z,64.52
2022-09-12T11:50:32.543Z,64.35
2022-09-12T11:51:41.483Z,63.91
2022-09-12T11:52:43.691Z,63.69
2022-09-12T11:53:58.682Z,64.08
2022-09-12T11:55:22.733Z,63.97
2022-09-12T11:56:25.534Z,63.56
2022-09-12T11:57:50.420Z,63.96
2022-09-12T11:59:02.792Z,63.07
2022-09-12T12:00:20.196Z,63.59
2022-09-12T12:01:32.170Z,62.92
2022-09-12T12:02:40.435Z,62.40
2022-09-12T12:03:46.281Z,63.09
2022-09-12T12:05:22.554Z,62.55
2022-09-12T12:07:05.588Z,62.84
2022-09-12T12:08:11.127Z,62.98
2022-09-12T12:09:20.653Z,63.20
2022-09-12T12:10:34.870Z,62.59
2022-09-12T12:11:44.869Z,62.17
2022-09-12T12:12:48.333Z,62.91
2022-09-12T12:13:57.070Z,63.86
2022-09-12T12:15:02.187Z,63.61
2022-09-12T12:16:29.272Z,63.75
2022-09-12T12:17:31.415Z,63.58
2022-09-12T12:18:38.900Z,63.46
2022-09-12T12:19:44.200Z,64.02
2022-09-12T12:20:46.960Z,63.18
2022-09-12T12:21:51.222Z,63.04
2022-09-12T12:22:54.742Z,63.04
2022-09-12T12:24:14.965Z,63.96
2022-09-12T12:25:24.377Z,62.45
2022-09-12T12:26:56.920Z,62.92
2022-09-12T12:28:08.675Z,61.81
2022-09-12T12:30:41.144Z,62.13
2022-09-12T12:32:04.608Z,62.31
2022-09-12T12:33:10.501Z,61.98
2022-09-12T12:34:40.058Z,61.39
2022-09-12T12:35:48.021Z,61.47
2022-09-12T12:36:50.420Z,61.37
2022-09-12T12:37:54.500Z,62.25
2022-09-12T12:38:57.236Z,61.62
2022-09-12T12:40:08.545Z,61.76
2022-09-12T12:41:17.575Z,60.85
2022-09-12T12:42:34.927Z,61.30
2022-09-12T12:43:36.996Z,61.08
2022-09-12T12:44:44.775Z,60.65
2022-09-12T12:45:48.908Z,60.76
2022-09-12T12:47:18.517Z,60.41
2022-09-12T12:48:20.697Z,60.76
2022-09-12T12:49:29.746Z,61.36
2022-09-12T12:50:34.660Z,61.20
2022-09-12T12:51:56.174Z,60.85
2022-09-12T12:53:15.840Z,61.10
2022-09-12T12:54:49.651Z,60.89
2022-09-12T12:55:55.032Z,60.87
2022-09-12T12:57:48.181Z,61.97
2022-09-12T12:59:00.339Z,62.30
2022-09-12T13:00:09.917Z,62.75
2022-09-12T13:01:18.295Z,62.60
2022-09-12T13:02:25.563Z,62.63
2022-09-12T13:03:31.643Z,63.45
2022-09-12T13:04:34.933Z,63.03
2022-09-12T13:05:59.858Z,63.38
2022-09-12T13:07:09.223Z,62.95
2022-09-12T13:08:32.507Z,63.55
2022-09-12T13:09:45.608Z,63.23
2022-09-12T13:10:57.168Z,63.49
2022-09-12T13:12:04.514Z,62.73
2022-09-12T13:13:08.871Z,62.39
2022-09-12T13:14:37.988Z,62.89
2022-09-12T13:15:50.946Z,62.58
2022-09-12T13:17:00.293Z,62.71
2022-09-12T13:18:26.218Z,62.71
2022-09-12T13:19:33.709Z,62.45
2022-09-12T13:20:48.195Z,62.12
2022-09-12T13:22:12.647Z,62.27
2022-09-12T13:23:27.873Z,62.22
2022-09-12T13:24:30.171Z,61.97
2022-09-12T13:25:37.485Z,62.18
2022-09-12T13:26:47.419Z,62.45
2022-09-12T13:28:13.465Z,62.01
2022-09-12T13:29:27.245Z,62.27
2022-09-12T13:30:33.261Z,61.61
2022-09-12T13:31:36.296Z,62.20
2022-09-12T13:32:38.556Z,61.68
2022-09-12T13:33:54.066Z,62.09
2022-09-12T13:35:01.718Z,61.36
2022-09-12T13:36:11.379Z,61.60
2022-09-12T13:37:34.879Z,60.93
2022-09-12T13:39:02.390Z,61.11
2022-09-12T13:40:32.162Z,61.87
2022-09-12T13:41:53.394Z,62.04
2022-09-12T13:43:17.570Z,61.92
2022-09-12T13:44:22.141Z,61.66
2022-09-12T13:45:30.542Z,61.52
2022-09-12T13:46:34.854Z,61.42
2022-09-12T13:47:45.519Z,61.76
2022-09-12T13:48:48.444Z,61.60
2022-09-12T13:49:51.338Z,61.43
2022-09-12T13:50:57.544Z,61.12
2022-09-12T13:52:04.755Z,61.10
2022-09-12T13:53:17.111Z,61.58
2022-09-12T13:54:24.367Z,61.50
2022-09-12T13:55:38.960Z,61.10
2022-09-12T13:56:48.995Z,61.61
2022-09-12T13:57:58.289Z,61.86
2022-09-12T13:59:02.736Z,61.17
2022-09-12T14:00:19.513Z,61.41
2022-09-12T14:01:23.459Z,61.54
2022-09-12T14:02:28.991Z,61.28
2022-09-12T14:03:54.757Z,61.97
2022-09-12T14:05:12.065Z,61.71
2022-09-12T14:06:14.634Z,62.01
2022-09-12T14:07:23.167Z,61.58
2022-09-12T14:08:25.483Z,61.74
2022-09-12T14:09:35.167Z,62.27
2022-09-12T14:10:43.922Z,62.29
2022-09-12T14:11:48.280Z,62.44
2022-09-12T14:12:52.029Z,62.45
2022-09-12T14:13:56.301Z,62.56
2022-09-12T14:14:58.715Z,62.56
2022-09-12T14:16:01.260Z,62.38
2022-09-12T14:17:24.315Z,62.97
2022-09-12T14:18:47.780Z,62.40
2022-09-12T14:19:54.026Z,62.81
2022-09-12T14:21:01.015Z,63.03
2022-09-12T14:22:03.174Z,63.16
2022-09-12T14:23:36.248Z,62.71
2022-09-12T14:24:40.825Z,62.81
2022-09-12T14:25:50.633Z,62.74
2022-09-12T14:26:56.957Z,62.80
2022-09-12T14:27:59.250Z,62.90
2022-09-12T14:29:05.022Z,62.93
2022-09-12T14:30:20.207Z,63.14
2022-09-12T14:31:28.974Z,62.97
2022-09-12T14:32:34.655Z,62.82
2022-09-12T14:33:52.161Z,62.62
2022-09-12T14:35:07.354Z,62.68
2022-09-12T14:36:12.276Z,62.87
2022-09-12T14:37:15.761Z,62.23
2022-09-12T14:38:22.857Z,62.06
2022-09-12T14:39:33.252Z,62.96
2022-09-12T14:40:43.108Z,62.62
2022-09-12T14:41:46.921Z,62.58
2022-09-12T14:42:50.959Z,62.73
2022-09-12T14:43:57.853Z,62.16
2022-09-12T14:45:14.344Z,62.64
2022-09-12T14:46:25.363Z,62.38
2022-09-12T14:47:40.107Z,62.39
2022-09-12T14:48:52.002Z,62.35
2022-09-12T14:49:54.922Z,61.72